Time;durP1;ratioP1;P1;durP2;ratioP2;P2;SDS_P1;SDS_P2;PMS_P1;PMS_P2;Temp;Humidity;BMP_temperature;BMP_pressure;BME280_temperature;BME280_humidity;BME280_pressure;Samples;Min_cycle;Max_cycle;Signal;HPM_P1;HPM_P2
2022/04/09 00:00:40;;;;;;;12.10;8.70;;;;;;;9.54;86.17;97672.41;5023117;28;20036;-59
2022/04/09 00:03:05;;;;;;;12.50;9.13;;;;;;;9.64;86.09;97681.34;5025763;28;20267;-58
2022/04/09 00:05:31;;;;;;;12.43;9.07;;;;;;;9.78;86.09;97684.06;5025960;28;20026;-59
2022/04/09 00:07:57;;;;;;;12.75;9.18;;;;;;;9.64;87.20;97691.69;5025920;28;20041;-59
2022/04/09 00:10:22;;;;;;;12.55;8.93;;;;;;;9.63;86.33;97670.19;5025931;28;20021;-59
2022/04/09 00:12:48;;;;;;;15.25;9.20;;;;;;;9.85;85.69;97695.78;5033922;28;20036;-59
2022/04/09 00:15:14;;;;;;;11.65;9.48;;;;;;;9.92;85.62;97701.47;5020256;28;20306;-59
2022/04/09 00:17:42;;;;;;;13.68;10.15;;;;;;;9.62;85.93;97670.25;5025673;28;20041;-58
2022/04/09 00:20:09;;;;;;;15.85;11.15;;;;;;;9.71;86.81;97708.56;5024408;28;20026;-59
2022/04/09 00:22:36;;;;;;;16.92;10.95;;;;;;;9.75;87.23;97707.50;5035245;28;20057;-58
2022/04/09 00:25:04;;;;;;;13.00;10.98;;;;;;;9.66;87.93;97720.88;5025659;28;20341;-59
2022/04/09 00:27:30;;;;;;;16.02;10.30;;;;;;;9.65;87.86;97730.38;5031245;28;20060;-58
2022/04/09 00:29:56;;;;;;;13.68;9.93;;;;;;;9.66;87.04;97711.38;5034347;28;20029;-58
2022/04/09 00:32:21;;;;;;;13.40;10.02;;;;;;;9.68;87.24;97726.81;5039373;28;20062;-58
2022/04/09 00:34:47;;;;;;;13.90;9.68;;;;;;;9.57;87.16;97711.81;5025493;28;20032;-58
2022/04/09 00:37:12;;;;;;;11.13;8.93;;;;;;;9.43;86.73;97709.91;5025486;28;20042;-58
2022/04/09 00:39:38;;;;;;;7.85;5.63;;;;;;;9.38;86.82;97722.22;5023935;28;20250;-58
2022/04/09 00:42:04;;;;;;;5.07;3.88;;;;;;;9.45;85.61;97731.34;5019649;28;20343;-59
2022/04/09 00:44:31;;;;;;;3.22;2.55;;;;;;;9.29;84.37;97731.28;5021627;28;20096;-60
2022/04/09 00:46:57;;;;;;;4.40;3.13;;;;;;;9.38;85.12;97727.41;5025162;28;20034;-58
2022/04/09 00:49:24;;;;;;;2.80;2.35;;;;;;;9.38;84.31;97742.03;5025153;28;20089;-58
2022/04/09 00:51:51;;;;;;;2.60;2.40;;;;;;;8.98;84.53;97691.41;5033268;28;20052;-58
2022/04/09 00:54:19;;;;;;;4.13;2.30;;;;;;;9.40;84.56;97755.75;5028330;28;20041;-59
2022/04/09 00:56:47;;;;;;;3.08;2.50;;;;;;;9.40;84.74;97756.56;5043639;28;20334;-58
2022/04/09 00:59:15;;;;;;;2.53;2.33;;;;;;;9.43;84.22;97766.75;5023857;28;20021;-59
2022/04/09 01:01:41;;;;;;;2.72;2.53;;;;;;;9.41;83.11;97760.84;5025003;28;20025;-59
2022/04/09 01:04:11;;;;;;;2.15;1.95;;;;;;;9.36;83.39;97767.13;5024633;28;20022;-59
2022/04/09 01:06:38;;;;;;;4.32;2.42;;;;;;;9.25;83.45;97778.81;5031267;28;20033;-60
2022/04/09 01:09:05;;;;;;;2.35;2.15;;;;;;;8.90;83.23;97715.91;5027123;28;20426;-60
2022/04/09 01:11:32;;;;;;;3.67;2.30;;;;;;;9.21;83.12;97773.88;5024263;28;20033;-59
2022/04/09 01:13:58;;;;;;;3.10;2.30;;;;;;;9.20;83.47;97778.19;5042084;28;20092;-59
2022/04/09 01:16:28;;;;;;;2.80;2.25;;;;;;;9.25;83.36;97773.66;5020258;28;20079;-59
2022/04/09 01:18:56;;;;;;;2.40;2.15;;;;;;;9.36;82.63;97773.13;5024554;28;20319;-58
2022/04/09 01:21:24;;;;;;;4.40;2.17;;;;;;;9.33;81.79;97787.03;5024629;28;20327;-58
2022/04/09 01:23:50;;;;;;;3.05;1.90;;;;;;;9.22;82.24;97781.53;5016716;28;20027;-59
2022/04/09 01:26:16;;;;;;;3.17;2.03;;;;;;;9.34;82.99;97777.53;5024229;28;20089;-59
2022/04/09 01:28:42;;;;;;;1.98;1.80;;;;;;;9.38;81.98;97784.25;5024356;28;20032;-59
2022/04/09 01:31:08;;;;;;;2.30;1.88;;;;;;;9.38;81.64;97783.38;5024054;28;20209;-60
2022/04/09 01:33:34;;;;;;;3.33;1.90;;;;;;;9.30;80.90;97791.50;5029732;28;20056;-59
2022/04/09 01:35:59;;;;;;;1.90;1.60;;;;;;;8.97;81.09;97800.72;5043966;28;20026;-59
2022/04/09 01:38:25;;;;;;;2.60;1.50;;;;;;;9.05;81.10;97815.03;5031115;28;20276;-59
2022/04/09 01:40:50;;;;;;;2.03;1.77;;;;;;;9.03;80.25;97814.28;5019234;28;20040;-60
2022/04/09 01:43:16;;;;;;;1.95;1.75;;;;;;;9.03;80.65;97812.53;5021944;28;20060;-58
2022/04/09 01:45:41;;;;;;;1.90;1.70;;;;;;;9.15;80.97;97818.91;5025779;28;20056;-58
2022/04/09 01:48:07;;;;;;;3.08;1.95;;;;;;;9.15;82.08;97822.31;5025670;28;20033;-58
2022/04/09 01:50:33;;;;;;;2.85;2.10;;;;;;;9.12;82.35;97821.59;5043818;28;20377;-59
2022/04/09 01:52:59;;;;;;;2.38;2.10;;;;;;;9.14;81.80;97832.72;5026064;28;20026;-59
2022/04/09 01:55:26;;;;;;;2.20;2.00;;;;;;;9.13;82.61;97839.59;5023827;28;20041;-59
2022/04/09 01:57:51;;;;;;;2.50;2.30;;;;;;;9.09;82.19;97845.84;5023894;28;20037;-59
2022/04/09 02:00:18;;;;;;;2.90;2.20;;;;;;;8.71;82.09;97852.72;5023887;28;20053;-59
2022/04/09 02:02:44;;;;;;;2.58;2.10;;;;;;;8.69;80.61;97870.81;5022397;28;20033;-58
2022/04/09 02:05:11;;;;;;;2.33;1.98;;;;;;;8.59;80.47;97872.97;5042303;28;20250;-58
2022/04/09 02:07:38;;;;;;;3.45;2.33;;;;;;;8.61;80.81;97883.22;5043350;28;20022;-59
2022/04/09 02:10:05;;;;;;;2.38;2.17;;;;;;;8.55;80.73;97868.00;5030414;28;20029;-58
2022/04/09 02:12:35;;;;;;;2.95;2.05;;;;;;;8.78;80.46;97898.00;5014032;28;20033;-59
2022/04/09 02:15:02;;;;;;;2.60;2.10;;;;;;;8.79;81.24;97897.91;5042482;28;20033;-58
2022/04/09 02:17:29;;;;;;;2.15;2.05;;;;;;;8.64;80.61;97903.72;5023417;28;20091;-58
2022/04/09 02:19:55;;;;;;;2.53;2.33;;;;;;;8.70;80.93;97902.63;5018889;28;20034;-58
2022/04/09 02:22:21;;;;;;;3.95;2.45;;;;;;;8.71;81.68;97910.31;5017726;28;20025;-58
2022/04/09 02:24:50;;;;;;;3.33;2.30;;;;;;;8.49;79.42;97901.78;5022738;28;20044;-58
2022/04/09 02:27:15;;;;;;;3.97;2.63;;;;;;;8.49;78.74;97923.25;5023104;28;20076;-58
2022/04/09 02:29:41;;;;;;;2.50;2.25;;;;;;;8.56;79.70;97914.38;5023236;28;20045;-58
2022/04/09 02:32:07;;;;;;;2.35;2.15;;;;;;;8.63;78.93;97914.94;5023305;28;20029;-59
2022/04/09 02:34:32;;;;;;;2.58;2.30;;;;;;;8.35;78.34;97908.34;5023242;28;20033;-58
2022/04/09 02:36:58;;;;;;;2.55;2.20;;;;;;;8.56;79.22;97924.69;5016213;28;20018;-60
2022/04/09 02:39:23;;;;;;;2.60;2.30;;;;;;;8.63;78.36;97939.00;5006934;28;20036;-59
2022/04/09 02:41:52;;;;;;;3.97;2.45;;;;;;;8.62;79.16;97933.91;5010737;28;20026;-59
2022/04/09 02:44:18;;;;;;;4.75;3.08;;;;;;;8.63;78.21;97943.34;5022594;28;20184;-59
2022/04/09 02:46:45;;;;;;;2.63;2.42;;;;;;;8.48;79.05;97938.81;5023308;28;20044;-59
2022/04/09 02:49:10;;;;;;;3.10;2.60;;;;;;;8.56;79.24;97934.19;5022691;28;20258;-59
2022/04/09 02:51:36;;;;;;;2.92;2.58;;;;;;;8.61;78.86;97940.81;5028142;28;20025;-58
2022/04/09 02:54:02;;;;;;;3.30;2.58;;;;;;;8.53;78.76;97937.72;5028845;28;20373;-59
2022/04/09 02:56:27;;;;;;;3.92;2.72;;;;;;;8.52;79.66;97948.09;5022679;28;20250;-59
2022/04/09 02:58:53;;;;;;;2.95;2.70;;;;;;;8.59;78.99;97954.69;5022636;28;20030;-58
2022/04/09 03:01:18;;;;;;;2.85;2.58;;;;;;;8.43;78.43;97939.78;5033708;28;20040;-59
2022/04/09 03:03:44;;;;;;;3.00;2.70;;;;;;;8.43;78.82;97952.69;5023300;28;20080;-59
2022/04/09 03:06:10;;;;;;;3.00;2.60;;;;;;;8.36;78.71;97951.28;5008091;28;20050;-59
2022/04/09 03:08:36;;;;;;;2.47;2.28;;;;;;;8.34;78.17;97955.66;5042599;28;20029;-58
2022/04/09 03:11:01;;;;;;;3.38;2.72;;;;;;;8.32;77.81;97960.03;5025702;28;20017;-59
2022/04/09 03:13:27;;;;;;;3.08;2.50;;;;;;;8.41;78.63;97958.84;5022542;28;20053;-58
2022/04/09 03:15:52;;;;;;;3.88;2.65;;;;;;;8.41;77.89;97957.09;5022666;28;20022;-58
2022/04/09 03:18:19;;;;;;;3.20;2.80;;;;;;;8.27;78.40;97960.22;5022665;28;20046;-58
2022/04/09 03:20:45;;;;;;;3.25;2.95;;;;;;;8.28;78.57;97968.81;5022335;28;20089;-58
2022/04/09 03:23:10;;;;;;;3.40;3.10;;;;;;;8.39;77.34;97961.47;5004082;28;20069;-58
2022/04/09 03:25:36;;;;;;;3.35;3.05;;;;;;;8.23;77.45;97952.69;5005530;28;20026;-57
2022/04/09 03:28:02;;;;;;;3.05;2.65;;;;;;;8.27;77.96;97967.97;5011614;28;20034;-58
2022/04/09 03:31:05;;;;;;;3.30;3.00;;;;;;;8.40;77.48;97980.38;5022522;28;20341;-59
2022/04/09 03:33:31;;;;;;;3.30;3.00;;;;;;;8.35;78.10;97985.72;5017556;28;20057;-59
2022/04/09 03:35:57;;;;;;;3.08;2.88;;;;;;;8.38;76.83;97980.44;5009716;28;20060;-59
2022/04/09 03:38:22;;;;;;;3.13;2.80;;;;;;;8.36;76.74;97991.72;5043484;28;20088;-59
2022/04/09 03:40:48;;;;;;;4.13;3.65;;;;;;;8.45;76.63;97989.63;5026646;28;20037;-59
2022/04/09 03:43:13;;;;;;;5.28;3.13;;;;;;;8.33;76.50;97992.66;5026334;28;20254;-59
2022/04/09 03:45:39;;;;;;;4.78;3.47;;;;;;;8.32;77.31;97997.88;5037108;28;20048;-58
2022/04/09 03:48:05;;;;;;;4.50;3.30;;;;;;;8.29;76.40;97994.53;5045535;28;20037;-58
2022/04/09 03:50:31;;;;;;;3.67;3.38;;;;;;;8.14;76.82;98002.88;5026403;28;20037;-59
2022/04/09 03:52:57;;;;;;;3.42;2.92;;;;;;;8.14;76.84;98015.78;5037613;28;20021;-59
2022/04/09 03:55:22;;;;;;;3.40;3.10;;;;;;;8.03;75.51;98020.50;5017740;28;20076;-58
2022/04/09 03:57:48;;;;;;;3.95;3.10;;;;;;;8.10;75.52;98030.50;5026206;28;20034;-59
2022/04/09 04:00:14;;;;;;;4.20;3.38;;;;;;;8.11;74.73;98034.78;5043496;28;20033;-59
2022/04/09 04:02:40;;;;;;;3.92;3.30;;;;;;;8.13;75.92;98039.88;5026063;28;20034;-58
2022/04/09 04:05:07;;;;;;;2.92;2.67;;;;;;;8.13;75.76;98047.59;5026015;28;20033;-58
2022/04/09 04:07:33;;;;;;;3.45;3.15;;;;;;;8.10;75.26;98050.31;5025805;28;20048;-58
2022/04/09 04:10:10;;;;;;;3.05;2.85;;;;;;;8.23;75.88;98071.31;5025740;28;20030;-58
2022/04/09 04:12:37;;;;;;;4.63;3.08;;;;;;;8.09;75.59;98075.25;5026130;28;20346;-59
2022/04/09 04:15:03;;;;;;;3.53;3.00;;;;;;;8.12;75.78;98079.44;5025336;28;20039;-59
2022/04/09 04:17:42;;;;;;;3.65;3.15;;;;;;;8.02;75.69;98084.09;5026273;28;20025;-60
2022/04/09 04:20:09;;;;;;;3.50;3.20;;;;;;;8.02;75.64;98089.25;5043092;28;20088;-60
2022/04/09 04:22:34;;;;;;;4.90;3.60;;;;;;;7.95;75.12;98090.38;5032841;28;20030;-60
2022/04/09 04:25:00;;;;;;;4.28;3.30;;;;;;;8.07;74.99;98096.81;5025748;28;20033;-60
2022/04/09 04:27:25;;;;;;;3.63;3.30;;;;;;;8.04;75.77;98102.94;5025712;28;20037;-60
2022/04/09 04:29:51;;;;;;;4.07;3.20;;;;;;;7.95;75.11;98106.69;5025378;28;20030;-60
2022/04/09 04:32:16;;;;;;;3.80;3.42;;;;;;;8.03;75.54;98106.41;5025315;28;20030;-60
2022/04/09 04:34:42;;;;;;;3.60;3.30;;;;;;;8.07;75.28;98115.72;5025533;28;20029;-60
2022/04/09 04:37:07;;;;;;;3.58;3.08;;;;;;;8.00;74.10;98095.38;5025626;28;20037;-58
2022/04/09 04:39:33;;;;;;;3.75;2.90;;;;;;;8.12;73.88;98115.53;5025017;28;20029;-58
2022/04/09 04:41:58;;;;;;;3.72;3.42;;;;;;;8.04;73.35;98117.56;5025446;28;20089;-59
2022/04/09 04:44:24;;;;;;;3.65;3.35;;;;;;;7.97;73.98;98116.09;5022291;28;20034;-60
2022/04/09 04:46:50;;;;;;;4.07;3.58;;;;;;;8.04;74.89;98131.28;5044627;28;20044;-59
2022/04/09 04:49:15;;;;;;;3.72;3.42;;;;;;;8.14;74.14;98126.66;5035197;28;20061;-59
2022/04/09 04:51:41;;;;;;;5.43;3.60;;;;;;;8.11;73.61;98121.59;5030357;28;20033;-60
2022/04/09 04:54:06;;;;;;;3.75;3.45;;;;;;;8.26;73.42;98133.91;5030813;28;20034;-59
2022/04/09 04:56:32;;;;;;;3.90;3.40;;;;;;;8.36;74.75;98134.41;5025166;28;20322;-59
2022/04/09 04:58:57;;;;;;;4.70;3.70;;;;;;;8.29;74.25;98143.28;5056160;28;20025;-59
2022/04/09 05:01:23;;;;;;;4.30;3.90;;;;;;;7.92;74.19;98134.31;5045180;28;20063;-58
2022/04/09 05:03:50;;;;;;;3.85;3.45;;;;;;;8.13;74.69;98149.00;5038463;28;20029;-58
2022/04/09 05:06:15;;;;;;;4.13;3.75;;;;;;;8.27;73.95;98150.25;5041579;28;20043;-58
2022/04/09 05:08:41;;;;;;;4.28;3.88;;;;;;;8.24;75.07;98151.19;5044659;28;20021;-59
2022/04/09 05:11:07;;;;;;;4.57;3.90;;;;;;;8.28;74.90;98154.50;5032304;28;20038;-59
2022/04/09 05:13:32;;;;;;;5.10;3.72;;;;;;;8.30;73.96;98165.59;5036957;28;20133;-59
2022/04/09 05:15:58;;;;;;;3.90;3.60;;;;;;;8.26;73.66;98175.16;5044381;28;20281;-58
2022/04/09 05:18:24;;;;;;;4.60;3.78;;;;;;;8.19;73.04;98178.88;5041743;28;20017;-59
2022/04/09 05:20:53;;;;;;;4.97;3.47;;;;;;;8.21;72.73;98187.41;5024798;28;20026;-58
2022/04/09 05:23:18;;;;;;;4.22;3.83;;;;;;;8.28;74.10;98186.28;5024578;28;20032;-59
2022/04/09 05:25:44;;;;;;;3.72;3.42;;;;;;;8.34;73.62;98194.69;5024403;28;20026;-58
2022/04/09 05:28:09;;;;;;;3.85;3.45;;;;;;;8.44;73.52;98198.63;5024449;28;20057;-58
2022/04/09 05:30:35;;;;;;;4.57;3.78;;;;;;;8.35;73.45;98189.50;5024115;28;20211;-59
2022/04/09 05:33:03;;;;;;;3.75;3.45;;;;;;;8.42;73.11;98205.56;5024628;28;20222;-59
2022/04/09 05:35:28;;;;;;;3.70;3.40;;;;;;;8.49;72.25;98214.78;5042409;28;20330;-60
2022/04/09 05:37:54;;;;;;;4.75;3.83;;;;;;;8.39;72.52;98216.00;5029261;28;20034;-58
2022/04/09 05:40:20;;;;;;;3.75;3.30;;;;;;;8.17;71.80;98215.94;5023797;28;20017;-60
2022/04/09 05:42:45;;;;;;;3.78;3.45;;;;;;;8.05;72.34;98215.47;5029796;28;20033;-59
2022/04/09 05:45:11;;;;;;;3.50;3.17;;;;;;;8.36;72.22;98229.84;5036259;28;20042;-59
2022/04/09 05:47:44;;;;;;;6.30;3.90;;;;;;;8.48;72.77;98227.75;5023893;28;20045;-59
2022/04/09 05:50:11;;;;;;;4.78;3.65;;;;;;;8.44;71.51;98234.75;5040903;28;20092;-59
2022/04/09 05:52:37;;;;;;;4.35;3.47;;;;;;;8.41;71.30;98248.59;5031172;28;20030;-59
2022/04/09 05:55:04;;;;;;;4.40;3.03;;;;;;;8.44;72.29;98248.50;5023750;28;20045;-59
2022/04/09 05:57:31;;;;;;;4.38;3.33;;;;;;;8.50;72.33;98259.50;5026910;28;20025;-59
2022/04/09 05:59:57;;;;;;;4.93;3.40;;;;;;;8.43;72.19;98262.25;5014569;28;20254;-59
2022/04/09 06:02:22;;;;;;;5.85;3.47;;;;;;;8.60;71.55;98276.34;5014498;28;20077;-59
2022/04/09 06:04:48;;;;;;;5.55;3.55;;;;;;;8.52;71.65;98274.00;5020060;28;20022;-60
2022/04/09 06:07:13;;;;;;;4.05;3.42;;;;;;;8.33;70.82;98288.44;5023292;28;20341;-59
2022/04/09 06:09:42;;;;;;;4.32;3.25;;;;;;;8.43;71.45;98310.44;5027616;28;20375;-59
2022/04/09 06:12:09;;;;;;;3.50;3.17;;;;;;;8.45;72.33;98303.50;5021417;28;20393;-60
2022/04/09 06:14:35;;;;;;;3.30;3.00;;;;;;;8.54;71.34;98321.25;5018811;28;20057;-59
2022/04/09 06:17:01;;;;;;;3.40;3.10;;;;;;;8.54;71.85;98310.09;5012418;28;20046;-60
2022/04/09 06:19:29;;;;;;;5.18;3.30;;;;;;;8.66;71.70;98314.81;5011952;28;20373;-62
2022/04/09 06:21:55;;;;;;;4.55;3.67;;;;;;;8.77;71.44;98320.44;5014898;28;20169;-59
2022/04/09 06:24:21;;;;;;;4.45;3.58;;;;;;;8.87;70.70;98322.69;5013482;28;20028;-59
2022/04/09 06:26:46;;;;;;;6.45;3.83;;;;;;;8.87;71.58;98327.84;5012899;28;20025;-60
2022/04/09 06:29:12;;;;;;;4.60;3.45;;;;;;;8.64;70.66;98332.09;5022799;28;20153;-59
2022/04/09 06:31:37;;;;;;;4.05;3.45;;;;;;;8.59;71.32;98329.69;5023211;28;20361;-60
2022/04/09 06:34:03;;;;;;;5.70;3.97;;;;;;;8.51;71.37;98338.56;5027390;28;20199;-60
2022/04/09 06:36:28;;;;;;;4.78;3.60;;;;;;;8.55;71.59;98329.84;5006451;28;20045;-60
2022/04/09 06:38:54;;;;;;;5.22;3.53;;;;;;;8.64;71.35;98329.53;5022885;28;20021;-58
2022/04/09 06:41:20;;;;;;;4.68;3.90;;;;;;;8.61;71.85;98330.47;5023015;28;20034;-58
2022/04/09 06:43:47;;;;;;;4.60;4.07;;;;;;;8.35;72.03;98340.81;5023208;28;20049;-58
2022/04/09 06:46:13;;;;;;;5.22;3.47;;;;;;;8.46;72.34;98331.88;5038328;28;20061;-59
2022/04/09 06:48:39;;;;;;;4.88;4.07;;;;;;;8.50;71.65;98336.91;5038934;28;20029;-58
2022/04/09 06:51:04;;;;;;;4.28;3.92;;;;;;;8.62;72.28;98339.03;5023152;28;20100;-58
2022/04/09 06:53:30;;;;;;;4.68;3.88;;;;;;;8.63;72.49;98344.16;5022624;28;20153;-58
2022/04/09 06:55:55;;;;;;;3.85;3.55;;;;;;;8.58;71.11;98345.19;5022708;28;20337;-58
2022/04/09 06:58:21;;;;;;;4.30;3.90;;;;;;;8.67;72.03;98355.22;5032613;28;20044;-60
2022/04/09 07:00:47;;;;;;;4.35;3.78;;;;;;;8.73;71.08;98349.81;5032115;28;20026;-58
2022/04/09 07:03:13;;;;;;;7.32;3.97;;;;;;;8.89;72.01;98357.88;5022527;28;20064;-58
2022/04/09 07:05:42;;;;;;;3.72;3.42;;;;;;;8.96;71.55;98363.66;5022672;28;20036;-58
2022/04/09 07:08:08;;;;;;;4.40;4.00;;;;;;;9.01;71.80;98368.63;5022834;28;20068;-58
2022/04/09 07:10:37;;;;;;;5.63;4.15;;;;;;;9.01;71.13;98378.97;5020083;28;20077;-58
2022/04/09 07:13:03;;;;;;;6.95;4.30;;;;;;;8.94;70.99;98383.53;5030019;28;20060;-58
2022/04/09 07:15:29;;;;;;;4.72;4.30;;;;;;;9.03;70.61;98385.75;5027008;28;20026;-58
2022/04/09 07:17:55;;;;;;;6.43;4.68;;;;;;;9.00;70.79;98387.63;5022929;28;20052;-59
2022/04/09 07:20:21;;;;;;;5.10;4.32;;;;;;;9.20;70.77;98399.81;5038010;28;20079;-59
2022/04/09 07:22:47;;;;;;;5.05;4.65;;;;;;;9.11;70.83;98407.00;5022713;28;20026;-58
2022/04/09 07:25:13;;;;;;;6.53;4.50;;;;;;;9.09;70.40;98410.53;5022170;28;20101;-58
2022/04/09 07:27:44;;;;;;;8.23;4.72;;;;;;;8.92;70.51;98416.28;5026233;28;20087;-58
2022/04/09 07:30:18;;;;;;;4.95;4.47;;;;;;;9.14;70.47;98414.63;5031987;28;20049;-59
2022/04/09 07:32:45;;;;;;;7.35;5.15;;;;;;;9.04;70.44;98428.78;5022804;28;20045;-58
2022/04/09 07:35:11;;;;;;;4.70;4.30;;;;;;;8.72;70.90;98423.00;5022339;28;20097;-59
2022/04/09 07:37:50;;;;;;;9.38;4.88;;;;;;;8.44;71.32;98379.22;5021061;28;20261;-60
2022/04/09 07:40:17;;;;;;;7.45;5.55;;;;;;;8.86;70.82;98452.66;5031059;28;20029;-59
2022/04/09 07:42:44;;;;;;;6.85;5.13;;;;;;;8.74;71.38;98459.94;5028339;28;20029;-59
2022/04/09 07:45:12;;;;;;;7.85;5.05;;;;;;;8.84;71.41;98452.72;5029354;28;20099;-60
2022/04/09 07:47:38;;;;;;;8.65;5.30;;;;;;;8.79;70.88;98467.50;5041761;28;20052;-59
2022/04/09 07:50:06;;;;;;;6.30;4.90;;;;;;;8.77;72.29;98477.88;5037656;28;20022;-58
2022/04/09 07:52:32;;;;;;;5.32;4.72;;;;;;;8.37;71.37;98478.34;5031150;28;20040;-57
2022/04/09 07:54:58;;;;;;;7.47;5.28;;;;;;;8.49;71.68;98484.88;5021574;28;20061;-57
2022/04/09 07:57:27;;;;;;;6.30;4.72;;;;;;;8.51;71.10;98478.78;5023819;28;20080;-58
2022/04/09 07:59:55;;;;;;;5.63;4.90;;;;;;;8.56;72.13;98476.88;5030871;28;20315;-59
2022/04/09 08:02:22;;;;;;;5.78;5.18;;;;;;;8.66;72.08;98489.47;5022217;28;20315;-59
2022/04/09 08:04:48;;;;;;;8.48;5.47;;;;;;;8.79;71.81;98499.34;5022568;28;20022;-58
2022/04/09 08:07:14;;;;;;;5.47;4.47;;;;;;;8.92;70.90;98501.50;5029267;28;20028;-58
2022/04/09 08:09:39;;;;;;;6.43;4.90;;;;;;;8.88;71.52;98493.03;5036226;28;20026;-59
2022/04/09 08:12:05;;;;;;;5.18;4.63;;;;;;;9.07;70.85;98492.41;5015419;28;20022;-57
2022/04/09 08:14:32;;;;;;;6.22;4.43;;;;;;;9.05;69.52;98487.28;5011582;28;20018;-59
2022/04/09 08:16:59;;;;;;;5.03;4.20;;;;;;;8.99;70.23;98502.97;5013172;28;20054;-58
2022/04/09 08:19:25;;;;;;;5.28;4.40;;;;;;;8.91;70.38;98503.25;5014519;28;20019;-59
2022/04/09 08:21:52;;;;;;;4.95;3.63;;;;;;;8.67;69.61;98486.00;5021870;28;20267;-59
2022/04/09 08:24:17;;;;;;;4.97;3.88;;;;;;;8.83;70.04;98482.00;5006412;28;20349;-59
2022/04/09 08:26:43;;;;;;;5.57;3.97;;;;;;;9.03;69.39;98493.41;5013437;28;20030;-59
2022/04/09 08:29:10;;;;;;;4.47;3.85;;;;;;;9.08;70.27;98499.25;5021458;28;20021;-58
2022/04/09 08:31:35;;;;;;;4.47;4.07;;;;;;;8.98;69.28;98504.72;5024887;28;20060;-58
2022/04/09 08:34:01;;;;;;;7.13;4.57;;;;;;;9.00;69.30;98509.00;5025739;28;20037;-58
2022/04/09 08:36:26;;;;;;;5.47;3.95;;;;;;;9.00;69.78;98509.84;5026771;28;20034;-58
2022/04/09 08:38:52;;;;;;;8.38;4.55;;;;;;;9.08;69.60;98505.25;5037609;28;20030;-58
2022/04/09 08:41:19;;;;;;;6.90;4.88;;;;;;;9.19;69.20;98522.13;5022743;28;20085;-58
2022/04/09 08:43:44;;;;;;;6.63;5.32;;;;;;;9.11;69.46;98530.97;5025453;28;20030;-58
2022/04/09 08:46:10;;;;;;;7.75;5.00;;;;;;;9.12;70.51;98524.91;5020608;28;20266;-58
2022/04/09 08:48:38;;;;;;;6.53;5.03;;;;;;;8.95;69.41;98507.41;5016327;28;20030;-58
2022/04/09 08:51:03;;;;;;;8.45;5.03;;;;;;;9.09;70.90;98526.75;5013369;28;20102;-58
2022/04/09 08:53:29;;;;;;;7.32;5.05;;;;;;;9.13;70.46;98529.16;5022715;28;20085;-58
2022/04/09 08:55:55;;;;;;;5.43;4.45;;;;;;;9.05;70.90;98512.25;5024084;28;20034;-58
2022/04/09 08:58:20;;;;;;;9.82;6.07;;;;;;;9.00;69.42;98521.91;5024675;28;20034;-59
2022/04/09 09:00:47;;;;;;;5.78;5.03;;;;;;;8.67;70.37;98473.94;5024863;28;20032;-59
2022/04/09 09:03:15;;;;;;;5.75;4.97;;;;;;;9.23;70.28;98528.84;5024651;28;20036;-60
2022/04/09 09:05:52;;;;;;;7.32;4.70;;;;;;;9.25;69.12;98553.75;5024873;28;20311;-59
2022/04/09 09:08:35;;;;;;;7.22;5.10;;;;;;;9.06;69.93;98488.94;5024902;28;20026;-59
2022/04/09 09:11:01;;;;;;;7.32;5.20;;;;;;;9.39;69.44;98535.19;5012975;28;20339;-58
2022/04/09 09:13:26;;;;;;;8.30;5.20;;;;;;;9.48;68.56;98539.19;5014381;28;20072;-59
2022/04/09 09:15:55;;;;;;;5.97;4.97;;;;;;;9.28;67.89;98512.31;5029113;28;20017;-58
2022/04/09 09:18:28;;;;;;;6.60;5.18;;;;;;;9.31;68.29;98557.88;5044359;28;20017;-59
2022/04/09 09:21:00;;;;;;;10.90;6.15;;;;;;;8.98;68.40;98481.47;5024363;28;20026;-59
2022/04/09 09:23:33;;;;;;;4.63;4.22;;;;;;;8.83;68.88;98536.22;5022335;28;20040;-59
2022/04/09 09:26:01;;;;;;;7.88;5.15;;;;;;;9.06;69.15;98534.59;5022822;28;20065;-59
2022/04/09 09:28:29;;;;;;;5.45;4.95;;;;;;;9.29;68.35;98538.97;5016538;28;20034;-59
2022/04/09 09:30:56;;;;;;;8.45;4.60;;;;;;;9.55;67.73;98537.22;5024170;28;20025;-57
2022/04/09 09:33:22;;;;;;;8.48;4.63;;;;;;;9.54;67.89;98530.38;5015136;28;20193;-59
2022/04/09 09:35:49;;;;;;;6.13;4.82;;;;;;;9.59;67.03;98536.19;5018813;28;20033;-58
2022/04/09 09:38:24;;;;;;;7.88;4.80;;;;;;;9.71;66.41;98545.28;5024255;28;20021;-59
2022/04/09 09:40:50;;;;;;;4.78;4.28;;;;;;;9.92;65.56;98541.03;5030205;28;20072;-60
2022/04/09 09:43:17;;;;;;;7.43;5.10;;;;;;;9.96;65.25;98551.22;5036075;28;20037;-59
2022/04/09 09:45:44;;;;;;;6.28;4.75;;;;;;;10.08;65.27;98547.31;5016919;28;20042;-58
2022/04/09 09:48:39;;;;;;;6.50;5.03;;;;;;;10.18;65.56;98553.81;5003163;28;20030;-58
2022/04/09 09:51:05;;;;;;;7.97;5.78;;;;;;;10.15;65.72;98509.13;5020691;28;20041;-59
2022/04/09 09:53:34;;;;;;;7.53;6.30;;;;;;;9.88;65.92;98548.06;5032025;28;20214;-58
2022/04/09 09:56:02;;;;;;;6.55;5.22;;;;;;;9.13;67.33;98487.84;5023794;28;20319;-59
2022/04/09 09:58:29;;;;;;;5.28;4.78;;;;;;;9.57;66.28;98502.66;5023904;28;20029;-58
2022/04/09 10:00:58;;;;;;;7.28;5.22;;;;;;;10.07;65.54;98531.88;5023661;28;20091;-58
2022/04/09 10:03:25;;;;;;;6.40;5.80;;;;;;;10.22;64.53;98540.75;5014612;28;20097;-60
2022/04/09 10:05:51;;;;;;;6.90;5.68;;;;;;;10.08;65.14;98534.38;5023509;28;20036;-59
2022/04/09 10:08:21;;;;;;;7.45;5.07;;;;;;;10.19;63.84;98537.41;5038759;28;20030;-59
2022/04/09 10:10:48;;;;;;;5.40;4.75;;;;;;;10.32;63.49;98539.53;5023558;28;20036;-58
2022/04/09 10:13:24;;;;;;;5.72;5.13;;;;;;;9.90;63.79;98541.09;5030924;28;20033;-58
2022/04/09 10:15:51;;;;;;;7.55;5.13;;;;;;;9.91;63.82;98522.09;5043054;28;20032;-59
2022/04/09 10:18:23;;;;;;;7.43;5.05;;;;;;;10.35;63.02;98536.84;5043249;28;20021;-59
2022/04/09 10:21:00;;;;;;;6.55;5.35;;;;;;;10.53;63.11;98533.53;5003853;28;20355;-58
2022/04/09 10:23:32;;;;;;;7.88;4.70;;;;;;;10.35;63.52;98490.28;5020579;28;20283;-57
2022/04/09 10:26:02;;;;;;;6.63;4.78;;;;;;;10.51;62.07;98506.84;5022752;28;20026;-58
2022/04/09 10:28:36;;;;;;;7.95;4.68;;;;;;;10.73;60.97;98552.59;5014335;28;20262;-58
2022/04/09 10:31:23;;;;;;;7.25;5.43;;;;;;;10.53;60.24;98553.38;5022185;28;20037;-58
2022/04/09 10:34:03;;;;;;;7.00;4.80;;;;;;;10.08;59.12;98490.41;5015944;28;20038;-58
2022/04/09 10:36:41;;;;;;;5.05;4.22;;;;;;;10.47;60.77;98546.69;5023072;28;20093;-58
2022/04/09 10:39:22;;;;;;;6.13;4.30;;;;;;;10.53;59.66;98540.44;5023137;28;20037;-58
2022/04/09 10:41:57;;;;;;;5.20;4.70;;;;;;;10.56;60.39;98535.16;5016689;28;20034;-59
2022/04/09 10:44:33;;;;;;;8.73;5.00;;;;;;;10.76;59.51;98539.53;5021398;28;20072;-58
2022/04/09 10:47:03;;;;;;;6.47;5.05;;;;;;;10.24;60.06;98500.16;5022812;28;20080;-59
2022/04/09 10:49:30;;;;;;;6.07;5.15;;;;;;;10.08;60.38;98529.22;5022654;28;20125;-59
2022/04/09 10:52:15;;;;;;;7.78;5.40;;;;;;;9.97;60.89;98523.59;5022657;28;20144;-58
2022/04/09 10:55:10;;;;;;;6.75;5.85;;;;;;;9.98;61.37;98530.47;5022138;28;20049;-58
2022/04/09 10:57:44;;;;;;;5.70;5.20;;;;;;;10.40;62.15;98540.09;5022192;28;20033;-58
2022/04/09 11:00:31;;;;;;;5.93;5.35;;;;;;;10.73;61.99;98534.47;5038390;28;20018;-59
2022/04/09 11:03:33;;;;;;;6.47;5.22;;;;;;;10.39;59.81;98501.31;5003179;28;20145;-58
2022/04/09 11:06:35;;;;;;;8.43;5.50;;;;;;;10.35;60.40;98536.84;5022788;28;20021;-59
2022/04/09 11:09:03;;;;;;;6.35;5.68;;;;;;;10.46;60.28;98550.22;5019221;28;20052;-59
2022/04/09 11:11:29;;;;;;;5.72;4.97;;;;;;;10.30;61.50;98538.72;5022351;28;20026;-60
2022/04/09 11:13:54;;;;;;;8.27;4.70;;;;;;;10.40;60.86;98555.59;5022600;28;20030;-58
2022/04/09 11:16:20;;;;;;;5.88;5.32;;;;;;;10.44;60.86;98552.00;5022755;28;20026;-59
2022/04/09 11:18:47;;;;;;;5.53;4.93;;;;;;;10.35;61.05;98552.38;5022667;28;20050;-59
2022/04/09 11:21:13;;;;;;;5.80;5.20;;;;;;;10.44;60.72;98546.81;5022756;28;20057;-58
2022/04/09 11:23:39;;;;;;;7.47;4.85;;;;;;;10.41;61.05;98541.78;5022575;28;20040;-60
2022/04/09 11:26:04;;;;;;;6.00;5.30;;;;;;;10.58;60.08;98556.66;5022240;28;20026;-58
2022/04/09 11:28:38;;;;;;;9.95;5.95;;;;;;;10.09;59.63;98489.53;5022443;28;20212;-58
2022/04/09 11:31:05;;;;;;;6.63;5.20;;;;;;;10.67;58.30;98542.47;5022278;28;20029;-58
2022/04/09 11:33:31;;;;;;;5.05;4.55;;;;;;;10.58;59.13;98509.22;5022775;28;20038;-59
2022/04/09 11:35:58;;;;;;;7.25;5.75;;;;;;;10.51;58.97;98553.44;5022540;28;20045;-59
2022/04/09 11:38:27;;;;;;;5.50;4.93;;;;;;;10.90;59.11;98533.75;5022121;28;20033;-59
2022/04/09 11:40:54;;;;;;;5.72;4.50;;;;;;;11.20;58.88;98552.38;5014562;28;20017;-59